createdAt,value
2023-01-20T00:01:43.192Z,92.83
2023-01-20T00:04:10.795Z,93.94
2023-01-20T00:06:38.333Z,92.98
2023-01-20T00:09:06.353Z,93.40
2023-01-20T00:11:34.160Z,93.25
2023-01-20T00:14:03.144Z,93.70
2023-01-20T00:16:31.950Z,93.08
2023-01-20T00:19:01.011Z,92.81
2023-01-20T00:21:29.038Z,93.57
2023-01-20T00:23:56.886Z,93.59
2023-01-20T00:26:25.591Z,93.26
2023-01-20T00:28:54.923Z,92.57
2023-01-20T00:31:25.244Z,92.97
2023-01-20T00:33:53.807Z,92.89
2023-01-20T00:36:23.881Z,93.27
2023-01-20T00:38:51.484Z,92.89
2023-01-20T00:41:19.227Z,92.81
2023-01-20T00:43:46.874Z,92.38
2023-01-20T00:46:14.509Z,92.70
2023-01-20T00:48:42.196Z,93.28
2023-01-20T00:51:10.381Z,91.38
2023-01-20T00:53:39.284Z,92.27
2023-01-20T00:56:07.440Z,93.54
2023-01-20T00:58:34.953Z,93.50
2023-01-20T01:01:02.500Z,93.18
2023-01-20T01:03:30.345Z,93.13
2023-01-20T01:06:07.058Z,93.24
2023-01-20T01:08:34.650Z,93.34
2023-01-20T01:11:04.026Z,93.27
2023-01-20T01:13:32.183Z,93.50
2023-01-20T01:15:59.812Z,93.19
2023-01-20T01:18:27.334Z,93.20
2023-01-20T01:20:54.795Z,92.97
2023-01-20T01:23:22.391Z,92.08
2023-01-20T01:25:49.850Z,92.18
2023-01-20T01:28:18.659Z,93.36
2023-01-20T01:30:46.274Z,94.07
2023-01-20T01:33:13.738Z,93.83
2023-01-20T01:35:42.063Z,93.09
2023-01-20T01:38:09.583Z,93.45
2023-01-20T01:40:37.032Z,92.21
2023-01-20T01:43:04.543Z,91.78
2023-01-20T01:45:34.629Z,92.13
2023-01-20T01:48:05.361Z,93.40
2023-01-20T01:50:38.644Z,93.04
2023-01-20T01:53:05.982Z,92.43
2023-01-20T01:55:36.006Z,92.78
2023-01-20T01:58:04.086Z,91.75
2023-01-20T02:00:31.589Z,93.01
2023-01-20T02:03:00.499Z,92.64
2023-01-20T02:05:29.561Z,93.88
2023-01-20T02:07:58.997Z,93.73
2023-01-20T02:10:26.567Z,93.55
2023-01-20T02:12:54.313Z,93.93
2023-01-20T02:15:28.411Z,93.75
2023-01-20T02:18:16.971Z,93.83
2023-01-20T02:21:07.491Z,94.00
2023-01-20T02:23:53.942Z,93.49
2023-01-20T02:26:38.021Z,93.52
2023-01-20T02:29:21.875Z,93.64
2023-01-20T02:32:22.973Z,93.33
2023-01-20T02:34:55.210Z,93.58
2023-01-20T02:37:26.202Z,93.78
2023-01-20T02:40:01.393Z,93.70
2023-01-20T02:42:35.460Z,93.52
2023-01-20T02:45:06.415Z,93.40
2023-01-20T02:47:38.495Z,93.43
2023-01-20T02:50:09.077Z,93.13
2023-01-20T02:52:39.416Z,94.29
2023-01-20T02:55:10.349Z,93.78
2023-01-20T02:57:42.925Z,93.57
2023-01-20T03:00:14.014Z,93.26
2023-01-20T03:02:45.587Z,93.46
2023-01-20T03:05:17.155Z,92.52
2023-01-20T03:07:45.805Z,93.28
2023-01-20T03:10:17.354Z,93.13
2023-01-20T03:12:47.630Z,93.32
2023-01-20T03:15:16.181Z,92.60
2023-01-20T03:17:45.248Z,93.59
2023-01-20T03:20:13.367Z,93.29
2023-01-20T03:22:40.928Z,93.34
2023-01-20T03:25:10.572Z,93.57
2023-01-20T03:27:38.328Z,93.36
2023-01-20T03:30:07.868Z,93.10
2023-01-20T03:32:35.452Z,93.69
2023-01-20T03:35:04.520Z,93.33
2023-01-20T03:37:32.015Z,93.58
2023-01-20T03:39:59.609Z,93.14
2023-01-20T03:42:30.978Z,92.84
2023-01-20T03:45:04.786Z,92.53
2023-01-20T03:47:44.990Z,92.52
2023-01-20T03:50:19.279Z,92.34
2023-01-20T03:52:51.687Z,92.80
2023-01-20T03:55:24.133Z,92.63
2023-01-20T03:57:55.204Z,92.93
2023-01-20T04:00:25.051Z,91.92
2023-01-20T04:02:54.757Z,92.05
2023-01-20T04:05:23.713Z,92.46
2023-01-20T04:07:51.299Z,92.42
2023-01-20T04:10:19.314Z,92.86
2023-01-20T04:12:46.808Z,91.17
2023-01-20T04:15:14.782Z,92.09
2023-01-20T04:17:42.559Z,91.55
2023-01-20T04:20:11.360Z,92.41
2023-01-20T04:22:46.999Z,92.33
2023-01-20T04:25:16.630Z,91.14
2023-01-20T04:27:44.485Z,90.29
2023-01-20T04:30:14.257Z,91.50
2023-01-20T04:32:41.766Z,89.88
2023-01-20T04:35:11.195Z,90.58
2023-01-20T04:37:38.653Z,90.94
2023-01-20T04:40:08.927Z,89.96
2023-01-20T04:42:36.469Z,89.35
2023-01-20T04:45:04.239Z,91.06
2023-01-20T04:47:31.949Z,90.70
2023-01-20T04:49:59.455Z,90.29
2023-01-20T04:52:26.984Z,89.69
2023-01-20T04:54:54.516Z,89.64
2023-01-20T04:57:23.379Z,88.87
2023-01-20T04:59:50.873Z,88.84
2023-01-20T05:02:18.490Z,88.46
2023-01-20T05:04:46.125Z,88.25
2023-01-20T05:07:13.656Z,87.40
2023-01-20T05:09:41.124Z,87.58
2023-01-20T05:12:08.675Z,87.40
2023-01-20T05:14:37.462Z,87.24
2023-01-20T05:17:04.997Z,87.08
2023-01-20T05:19:32.460Z,87.29
2023-01-20T05:22:00.358Z,87.43
2023-01-20T05:24:27.811Z,86.42
2023-01-20T05:26:55.320Z,85.45
2023-01-20T05:29:22.899Z,85.71
2023-01-20T05:31:51.686Z,87.34
2023-01-20T05:34:19.155Z,87.90
2023-01-20T05:36:46.726Z,87.58
2023-01-20T05:39:14.236Z,87.52
2023-01-20T05:41:41.731Z,88.72
2023-01-20T05:44:09.212Z,88.93
2023-01-20T05:46:36.713Z,88.80
2023-01-20T05:49:05.491Z,88.87
2023-01-20T05:51:33.087Z,89.26
2023-01-20T05:54:00.575Z,88.92
2023-01-20T05:56:28.058Z,88.23
2023-01-20T05:58:55.965Z,89.03
2023-01-20T06:01:24.035Z,89.29
2023-01-20T06:03:51.647Z,88.49
2023-01-20T06:06:20.621Z,88.88
2023-01-20T06:08:49.802Z,89.24
2023-01-20T06:11:18.009Z,89.52
2023-01-20T06:13:48.967Z,91.00
2023-01-20T06:16:17.367Z,92.34
2023-01-20T06:18:44.910Z,92.27
2023-01-20T06:21:12.747Z,92.11
2023-01-20T06:23:41.719Z,92.64
2023-01-20T06:26:11.921Z,92.91
2023-01-20T06:28:39.428Z,92.53
2023-01-20T06:31:08.955Z,92.89
2023-01-20T06:33:36.551Z,92.95
2023-01-20T06:36:05.304Z,92.67
2023-01-20T06:38:34.294Z,92.69
2023-01-20T06:41:05.033Z,92.75
2023-01-20T06:43:33.913Z,92.60
2023-01-20T06:46:01.591Z,92.77
2023-01-20T06:48:29.280Z,93.06
2023-01-20T06:51:01.461Z,93.01
2023-01-20T06:53:28.947Z,92.58
2023-01-20T06:55:57.068Z,93.14
2023-01-20T06:58:26.856Z,93.23
2023-01-20T07:00:54.640Z,92.94
2023-01-20T07:03:22.342Z,93.21
2023-01-20T07:05:55.256Z,92.49
2023-01-20T07:08:22.997Z,92.33
2023-01-20T07:10:50.448Z,92.11
2023-01-20T07:13:17.943Z,92.16
2023-01-20T07:15:46.813Z,92.80
2023-01-20T07:18:14.324Z,93.13
2023-01-20T07:20:43.247Z,92.82
2023-01-20T07:23:10.948Z,93.08
2023-01-20T07:25:39.508Z,92.60
2023-01-20T07:28:07.403Z,92.35
2023-01-20T07:30:34.915Z,92.46
2023-01-20T07:33:05.508Z,92.90
2023-01-20T07:35:33.016Z,93.00
2023-01-20T07:38:00.588Z,93.32
2023-01-20T07:40:28.052Z,93.38
2023-01-20T07:42:55.513Z,93.31
2023-01-20T07:45:22.976Z,93.56
2023-01-20T07:47:50.427Z,92.96
2023-01-20T07:50:19.244Z,92.00
2023-01-20T07:52:46.708Z,92.43
2023-01-20T07:55:14.596Z,93.15
2023-01-20T07:57:42.242Z,92.44
2023-01-20T08:00:10.987Z,92.24
2023-01-20T08:02:39.148Z,92.85
2023-01-20T08:05:10.488Z,92.83
2023-01-20T08:07:39.331Z,93.14
2023-01-20T08:10:07.910Z,93.14
2023-01-20T08:12:35.440Z,93.42
2023-01-20T08:15:02.952Z,93.57
2023-01-20T08:17:30.411Z,93.27
2023-01-20T08:19:58.967Z,93.64
2023-01-20T08:22:26.749Z,92.90
2023-01-20T08:24:55.504Z,93.31
2023-01-20T08:27:22.939Z,92.86
2023-01-20T08:29:50.362Z,92.26
2023-01-20T08:32:17.828Z,92.20
2023-01-20T08:34:45.383Z,91.81
2023-01-20T08:37:12.906Z,91.82
2023-01-20T08:39:40.367Z,92.26
2023-01-20T08:42:09.165Z,92.99
2023-01-20T08:44:36.627Z,92.99
2023-01-20T08:47:04.462Z,92.68
2023-01-20T08:49:32.217Z,92.47
2023-01-20T08:51:59.712Z,93.14
2023-01-20T08:54:29.313Z,91.80
2023-01-20T08:56:56.808Z,91.89
2023-01-20T08:59:25.576Z,93.20
2023-01-20T09:01:53.041Z,91.61
2023-01-20T09:04:20.494Z,92.36
2023-01-20T09:06:50.194Z,91.41
2023-01-20T09:09:19.320Z,92.11
2023-01-20T09:11:51.151Z,91.99
2023-01-20T09:14:19.089Z,92.17
2023-01-20T09:16:48.471Z,91.88
2023-01-20T09:19:16.011Z,92.08
2023-01-20T09:21:43.619Z,93.16
2023-01-20T09:24:17.688Z,92.04
2023-01-20T09:26:45.317Z,91.20
2023-01-20T09:29:15.346Z,90.69
2023-01-20T09:31:45.238Z,91.41
2023-01-20T09:34:19.057Z,92.48
2023-01-20T09:36:46.918Z,91.81
2023-01-20T09:39:32.173Z,90.79
2023-01-20T09:42:22.423Z,91.24
2023-01-20T09:44:53.395Z,88.87
2023-01-20T09:47:31.369Z,89.56
2023-01-20T09:50:27.620Z,88.06
2023-01-20T09:53:04.748Z,88.79
2023-01-20T09:55:40.685Z,88.22
2023-01-20T09:58:13.381Z,87.13
2023-01-20T10:00:42.314Z,86.28
2023-01-20T10:03:14.588Z,86.75
2023-01-20T10:05:43.946Z,85.77
2023-01-20T10:08:14.745Z,86.34
2023-01-20T10:10:48.626Z,84.86
2023-01-20T10:13:20.268Z,85.43
2023-01-20T10:15:50.071Z,85.91
2023-01-20T10:18:18.922Z,85.34
2023-01-20T10:20:50.121Z,85.26
2023-01-20T10:23:21.459Z,86.07
2023-01-20T10:25:52.452Z,85.12
2023-01-20T10:28:24.683Z,85.33
2023-01-20T10:30:52.318Z,82.88
2023-01-20T10:33:22.178Z,83.86
2023-01-20T10:35:52.860Z,86.11
2023-01-20T10:38:23.857Z,86.66
2023-01-20T10:40:54.932Z,83.56
2023-01-20T10:43:22.561Z,84.99
2023-01-20T10:46:18.542Z,83.57
2023-01-20T10:49:00.445Z,85.72
2023-01-20T10:51:34.323Z,84.73
2023-01-20T10:54:10.566Z,82.14
2023-01-20T10:56:43.747Z,83.62
2023-01-20T10:59:15.342Z,84.00
2023-01-20T11:01:44.278Z,83.56
2023-01-20T11:04:18.355Z,85.55
2023-01-20T11:06:50.308Z,80.14
2023-01-20T11:09:21.855Z,84.60
2023-01-20T11:11:49.491Z,84.01
2023-01-20T11:14:17.076Z,84.76
2023-01-20T11:16:48.087Z,81.61
2023-01-20T11:19:15.836Z,80.65
2023-01-20T11:21:43.311Z,81.32
2023-01-20T11:27:12.053Z,84.41
2023-01-20T11:29:42.181Z,81.38
2023-01-20T11:32:25.839Z,81.87
2023-01-20T11:34:53.959Z,84.75
2023-01-20T11:37:22.576Z,76.77
2023-01-20T11:40:00.237Z,81.47
2023-01-20T11:42:30.685Z,78.78
2023-01-20T11:45:15.290Z,78.48
2023-01-20T11:47:47.064Z,85.42
2023-01-20T11:50:31.130Z,85.28
2023-01-20T11:53:20.139Z,79.77
2023-01-20T11:55:53.853Z,84.29
2023-01-20T11:58:24.451Z,83.69
2023-01-20T12:00:54.228Z,80.42
2023-01-20T12:03:39.708Z,83.57
2023-01-20T12:06:13.392Z,80.43
2023-01-20T12:08:46.770Z,84.88
2023-01-20T12:11:16.126Z,82.80
2023-01-20T12:14:07.372Z,79.90
2023-01-20T12:16:35.640Z,80.24
2023-01-20T12:19:05.869Z,83.90
2023-01-20T12:21:36.753Z,83.58
2023-01-20T12:24:10.705Z,79.27
2023-01-20T12:26:38.252Z,78.19
2023-01-20T12:29:12.943Z,76.90
2023-01-20T12:31:40.592Z,73.74
2023-01-20T12:34:12.272Z,83.15
2023-01-20T12:37:03.302Z,80.38
2023-01-20T12:39:44.274Z,78.88
2023-01-20T12:42:24.008Z,75.27
2023-01-20T12:44:54.941Z,81.78
2023-01-20T12:47:35.443Z,82.77
2023-01-20T12:50:15.147Z,75.00
2023-01-20T12:52:52.136Z,75.55
2023-01-20T12:55:32.844Z,81.13
2023-01-20T12:58:09.146Z,84.50
2023-01-20T13:01:04.621Z,73.71
2023-01-20T13:03:56.615Z,84.92
2023-01-20T13:06:44.517Z,82.64
2023-01-20T13:09:25.684Z,84.36
2023-01-20T13:12:03.122Z,83.98
2023-01-20T13:14:39.221Z,84.18
2023-01-20T13:17:16.730Z,83.65
2023-01-20T13:19:47.963Z,75.33
2023-01-20T13:22:18.111Z,81.53
2023-01-20T13:24:47.522Z,79.69
2023-01-20T13:27:16.137Z,73.93
2023-01-20T13:29:53.626Z,80.42
2023-01-20T13:32:34.373Z,74.56
2023-01-20T13:35:02.971Z,75.97
2023-01-20T13:37:33.405Z,74.77
2023-01-20T13:40:01.151Z,79.38
2023-01-20T13:42:31.236Z,75.35
2023-01-20T13:45:17.664Z,73.16
2023-01-20T13:47:57.368Z,77.20
2023-01-20T13:50:27.355Z,82.97
2023-01-20T13:53:16.420Z,84.63
2023-01-20T13:56:00.477Z,76.40
2023-01-20T13:58:29.678Z,79.29
2023-01-20T14:00:58.694Z,79.93
2023-01-20T14:03:30.011Z,83.57
2023-01-20T14:06:00.578Z,76.68
2023-01-20T14:08:30.557Z,76.72
2023-01-20T14:11:08.831Z,80.21
2023-01-20T14:13:36.335Z,79.56
2023-01-20T14:16:03.903Z,80.47
2023-01-20T14:18:32.892Z,79.50
2023-01-20T14:21:03.905Z,77.25
2023-01-20T14:23:35.184Z,84.64
2023-01-20T14:26:05.678Z,84.89
2023-01-20T14:28:35.462Z,84.41
2023-01-20T14:31:13.834Z,85.14
2023-01-20T14:33:47.075Z,83.81
2023-01-20T14:36:18.720Z,81.04
2023-01-20T14:38:57.286Z,85.28
2023-01-20T14:41:30.826Z,85.08
2023-01-20T14:43:58.839Z,86.93
2023-01-20T14:46:27.558Z,77.70
2023-01-20T14:48:57.123Z,80.57
2023-01-20T14:51:24.761Z,85.49
2023-01-20T14:54:44.903Z,80.06
2023-01-20T14:57:20.011Z,81.58
2023-01-20T14:59:47.528Z,82.98
2023-01-20T15:02:20.577Z,85.51
2023-01-20T15:04:49.264Z,75.92
2023-01-20T15:07:19.481Z,77.00
2023-01-20T15:09:52.724Z,82.68
2023-01-20T15:12:40.350Z,76.22
2023-01-20T15:15:14.825Z,77.41
2023-01-20T15:18:15.886Z,86.70
2023-01-20T15:20:46.791Z,85.75
2023-01-20T15:23:31.295Z,86.32
2023-01-20T15:26:08.489Z,87.07
2023-01-20T15:28:38.732Z,81.23
2023-01-20T15:31:06.448Z,85.36
2023-01-20T15:33:33.954Z,85.87
2023-01-20T15:36:02.745Z,82.96
2023-01-20T15:38:33.016Z,83.13
2023-01-20T15:41:00.495Z,85.57
2023-01-20T15:43:28.011Z,86.67
2023-01-20T15:45:55.466Z,87.35
2023-01-20T15:48:24.374Z,87.47
2023-01-20T15:50:51.948Z,87.38
2023-01-20T15:53:20.735Z,87.01
2023-01-20T15:55:51.716Z,86.19
2023-01-20T15:58:25.337Z,87.31
2023-01-20T16:00:53.283Z,87.92
2023-01-20T16:03:20.785Z,88.45
2023-01-20T16:05:49.439Z,88.87
2023-01-20T16:08:18.031Z,88.41
2023-01-20T16:10:46.930Z,88.79
2023-01-20T16:13:14.890Z,88.64
2023-01-20T16:15:43.410Z,88.44
2023-01-20T16:18:15.458Z,88.07
2023-01-20T16:20:43.895Z,88.60
2023-01-20T16:23:11.863Z,87.78
2023-01-20T16:25:40.038Z,88.37
2023-01-20T16:28:15.544Z,88.14
2023-01-20T16:30:43.513Z,88.79
2023-01-20T16:33:18.935Z,89.99
2023-01-20T16:35:46.681Z,86.49
2023-01-20T16:38:15.597Z,87.20
2023-01-20T16:40:47.537Z,87.61
2023-01-20T16:43:17.512Z,87.20
2023-01-20T16:45:45.398Z,87.56
2023-01-20T16:48:12.985Z,86.98
2023-01-20T16:50:40.472Z,89.01
2023-01-20T16:53:07.950Z,86.19
2023-01-20T16:55:35.436Z,88.23
2023-01-20T16:58:03.012Z,87.67
2023-01-20T17:00:31.809Z,88.04
2023-01-20T17:02:59.292Z,88.64
2023-01-20T17:05:28.386Z,88.30
2023-01-20T17:07:57.614Z,88.20
2023-01-20T17:10:26.291Z,87.90
2023-01-20T17:12:54.357Z,87.86
2023-01-20T17:15:22.400Z,87.81
2023-01-20T17:17:51.905Z,87.19
2023-01-20T17:20:19.852Z,88.37
2023-01-20T17:22:47.775Z,89.28
2023-01-20T17:25:17.935Z,88.56
2023-01-20T17:27:45.844Z,87.78
2023-01-20T17:30:14.152Z,87.67
2023-01-20T17:32:42.190Z,87.31
2023-01-20T17:35:11.421Z,86.47
2023-01-20T17:37:38.934Z,87.27
2023-01-20T17:40:07.474Z,87.44
2023-01-20T17:42:34.946Z,87.53
2023-01-20T17:45:06.386Z,88.57
2023-01-20T17:47:33.865Z,86.45
2023-01-20T17:50:01.354Z,85.49
2023-01-20T17:52:30.230Z,84.63
2023-01-20T17:54:57.724Z,87.00
2023-01-20T17:57:27.015Z,89.46
2023-01-20T17:59:54.703Z,87.64
2023-01-20T18:02:22.397Z,88.74
2023-01-20T18:04:49.932Z,89.39
2023-01-20T18:07:17.660Z,88.44
2023-01-20T18:09:46.433Z,88.16
2023-01-20T18:12:14.399Z,88.43
2023-01-20T18:14:41.881Z,89.08
2023-01-20T18:17:09.406Z,89.20
2023-01-20T18:19:36.905Z,89.07
2023-01-20T18:22:06.948Z,89.58
2023-01-20T18:24:34.595Z,87.73
2023-01-20T18:27:03.380Z,89.77
2023-01-20T18:29:31.189Z,89.12
2023-01-20T18:31:59.030Z,87.21
2023-01-20T18:34:26.543Z,87.30
2023-01-20T18:36:54.178Z,88.82
2023-01-20T18:39:23.593Z,86.80
2023-01-20T18:41:52.265Z,88.12
2023-01-20T18:44:23.099Z,87.90
2023-01-20T18:46:50.807Z,88.31
2023-01-20T18:49:18.584Z,88.49
2023-01-20T18:51:46.106Z,89.19
2023-01-20T18:54:14.811Z,89.67
2023-01-20T18:56:42.294Z,88.77
2023-01-20T18:59:11.069Z,89.29
2023-01-20T19:01:41.222Z,89.44
2023-01-20T19:04:10.723Z,89.48
2023-01-20T19:06:41.850Z,89.40
2023-01-20T19:09:09.893Z,89.28
2023-01-20T19:11:39.583Z,89.65
2023-01-20T19:14:07.903Z,89.79
2023-01-20T19:16:37.822Z,88.98
2023-01-20T19:19:07.892Z,89.87
2023-01-20T19:21:36.563Z,87.88
2023-01-20T19:24:06.074Z,87.91
2023-01-20T19:26:35.463Z,88.97
2023-01-20T19:29:04.913Z,88.72
2023-01-20T19:31:34.207Z,90.21
2023-01-20T19:34:01.995Z,88.19
2023-01-20T19:36:30.805Z,88.49
2023-01-20T19:39:00.141Z,88.47
2023-01-20T19:41:29.215Z,88.51
2023-01-20T19:43:57.978Z,89.22
2023-01-20T19:46:27.221Z,89.28
2023-01-20T19:48:56.486Z,89.96
2023-01-20T19:51:24.456Z,90.15
2023-01-20T19:53:57.802Z,91.42
2023-01-20T19:56:26.525Z,89.90
2023-01-20T19:58:55.255Z,89.85
2023-01-20T20:01:24.850Z,90.60
2023-01-20T20:03:53.802Z,90.59
2023-01-20T20:06:24.101Z,90.92
2023-01-20T20:08:52.310Z,90.70
2023-01-20T20:11:21.128Z,91.14
2023-01-20T20:13:48.924Z,90.38
2023-01-20T20:16:16.570Z,90.99
2023-01-20T20:18:44.181Z,90.54
2023-01-20T20:21:11.846Z,91.43
2023-01-20T20:23:39.331Z,91.80
2023-01-20T20:26:06.915Z,91.05
2023-01-20T20:28:35.882Z,91.45
2023-01-20T20:31:05.991Z,90.63
2023-01-20T20:33:34.230Z,91.29
2023-01-20T20:36:06.560Z,91.00
2023-01-20T20:38:36.544Z,91.56
2023-01-20T20:41:04.774Z,91.48
2023-01-20T20:43:32.317Z,89.84
2023-01-20T20:46:01.813Z,91.57
2023-01-20T20:48:29.801Z,91.53
2023-01-20T20:50:57.445Z,91.72
2023-01-20T20:53:25.047Z,89.94
2023-01-20T20:55:55.280Z,90.22
2023-01-20T20:58:23.325Z,90.31
2023-01-20T21:00:51.746Z,91.56
2023-01-20T21:03:20.534Z,90.43
2023-01-20T21:05:49.407Z,90.61
2023-01-20T21:08:17.187Z,90.46
2023-01-20T21:10:44.666Z,90.08
2023-01-20T21:13:12.231Z,90.61
2023-01-20T21:15:39.760Z,91.69
2023-01-20T21:18:07.481Z,91.57
2023-01-20T21:20:36.318Z,91.08
2023-01-20T21:23:04.518Z,91.20
2023-01-20T21:25:32.863Z,91.26
2023-01-20T21:28:00.369Z,91.02
2023-01-20T21:30:27.939Z,91.91
2023-01-20T21:32:56.548Z,90.98
2023-01-20T21:35:24.160Z,90.58
2023-01-20T21:37:53.210Z,90.84
2023-01-20T21:40:20.803Z,91.28
2023-01-20T21:42:49.838Z,91.48
2023-01-20T21:45:16.763Z,91.46
2023-01-20T21:47:44.235Z,90.96
2023-01-20T21:50:29.735Z,91.73
2023-01-20T21:52:58.822Z,91.70
2023-01-20T21:55:26.274Z,91.41
2023-01-20T21:57:53.816Z,92.25
2023-01-20T22:00:22.003Z,92.57
2023-01-20T22:02:49.773Z,91.62
2023-01-20T22:05:18.282Z,92.45
2023-01-20T22:07:47.795Z,91.52
2023-01-20T22:10:17.534Z,92.27
2023-01-20T22:12:45.399Z,91.42
2023-01-20T22:15:13.470Z,91.85
2023-01-20T22:17:41.368Z,92.14
2023-01-20T22:20:10.671Z,92.81
2023-01-20T22:22:38.411Z,92.37
2023-01-20T22:25:07.370Z,92.42
2023-01-20T22:27:36.355Z,92.41
2023-01-20T22:30:04.174Z,92.58
2023-01-20T22:32:31.880Z,92.32
2023-01-20T22:34:59.637Z,92.62
2023-01-20T22:37:27.088Z,92.20
2023-01-20T22:39:54.589Z,92.37
2023-01-20T22:42:22.040Z,92.49
2023-01-20T22:44:50.926Z,92.21
2023-01-20T22:47:18.395Z,92.15
2023-01-20T22:49:45.851Z,92.01
2023-01-20T22:52:13.529Z,92.83
2023-01-20T22:54:40.967Z,93.15
2023-01-20T22:57:08.428Z,92.64
2023-01-20T22:59:36.475Z,92.88
2023-01-20T23:02:05.544Z,92.58
2023-01-20T23:04:33.136Z,92.83
2023-01-20T23:07:00.793Z,92.49
2023-01-20T23:09:28.535Z,92.39
2023-01-20T23:11:56.012Z,92.41
2023-01-20T23:14:51.797Z,92.26
2023-01-20T23:17:20.592Z,92.59
2023-01-20T23:19:48.044Z,92.26
2023-01-20T23:22:15.550Z,92.47
2023-01-20T23:24:43.032Z,92.28
2023-01-20T23:27:10.655Z,92.57
2023-01-20T23:29:38.309Z,91.89
2023-01-20T23:32:06.382Z,92.47
2023-01-20T23:34:35.173Z,92.40
2023-01-20T23:37:02.821Z,92.89
2023-01-20T23:39:30.303Z,92.76
2023-01-20T23:41:57.887Z,92.19
2023-01-20T23:44:25.491Z,92.64
2023-01-20T23:46:53.195Z,92.34
2023-01-20T23:49:22.615Z,92.40
2023-01-20T23:51:51.691Z,91.94
2023-01-20T23:54:19.303Z,92.10
2023-01-20T23:56:47.003Z,92.63
2023-01-20T23:59:14.587Z,92.46
